CheckWX is a tool to help pilots better visualize weather data.  It is not intended as a substitute for an official pre-flight weather briefing.

14:21:56 UTC

EGLL METAR
London Heathrow Airport
London, United Kingdom
Current

1 hour ago

EGLL 161320Z AUTO VRB05KT 9999 NCD 26/08 Q1018
Observed
Jul-16 @ 13:20 UTC
Wind
  • Variable at 5 KTS
Visibility
10,000+ meters
Flight Rules
VFR
Cloud Levels
  • Clear skies
Temperature
26°C / 79°F
Dewpoint
C / 46°F
Humidity
32%
Altimeter
30.06" Hg
Pressure
1017.92 hPa
Previous

2 hours ago

EGLL 161250Z AUTO VRB04KT 9999 NCD 25/08 Q1019
Observed
Jul-16 @ 12:50 UTC
Wind
  • Variable at 4 KTS
Visibility
10,000+ meters
Flight Rules
VFR
Cloud Levels
  • Clear skies
Temperature
25°C / 77°F
Dewpoint
C / 46°F
Humidity
34%
Altimeter
30.09" Hg
Pressure
1018.92 hPa
Previous

2 hours ago

EGLL 161220Z AUTO VRB05KT 9999 NCD 24/08 Q1019
Observed
Jul-16 @ 12:20 UTC
Wind
  • Variable at 5 KTS
Visibility
10,000+ meters
Flight Rules
VFR
Cloud Levels
  • Clear skies
Temperature
24°C / 75°F
Dewpoint
C / 46°F
Humidity
36%
Altimeter
30.09" Hg
Pressure
1018.92 hPa